KBNO

Burns Municipal Airport

Burns, Oregon, USA
METAR KBNO 230753Z AUTO 29013KT 10SM SCT085 M11/M14 A3012 RMK AO2 SLP239 T11061144 400001144
Observed Flight Rules
Feb-23 @ 07:53 UTC (20 minutes ago) Visual Flight Rules
Wind Visibility Clouds
290° at 13 knots 10 miles
  • Scattered at 8,500' AGL
Temperatures Readings
Current -11°C / 12°F
Dewpoint -14°C / 7°F
Humidity 79%
Altimeter 30.12" Hg
Pressure 1023.9 hPa
Elevation 1264
METAR KBNO 230753Z AUTO 29013KT 10SM SCT085 M11/M14 A3012 RMK AO2 SLP239 T11061144 400001144
Observed Flight Rules
Feb-23 @ 07:53 UTC
(20 minutes ago)
VFR
Wind Visibility
290° at 13 knots 10 miles
Clouds
  • Scattered at 8,500' AGL
Temperature Dewpoint
-11°C / 12°F -14°C / 7°F
Humidity Altimeter Pressure
79% 30.12" Hg 1023.9 hPa